Time;durP1;ratioP1;P1;durP2;ratioP2;P2;SDS_P1;SDS_P2;PMS_P1;PMS_P2;Temp;Humidity;BMP_temperature;BMP_pressure;BME280_temperature;BME280_humidity;BME280_pressure;Samples;Min_cycle;Max_cycle;Signal;HPM_P1;HPM_P2
2022/06/02 00:01:48;;;;;;;2.78;1.30;;;10.40;82.70;;;;;;4995398;28;20104;-57
2022/06/02 00:04:27;;;;;;;3.75;1.20;;;10.60;82.50;;;;;;5010914;28;20030;-55
2022/06/02 00:07:09;;;;;;;5.70;1.77;;;10.90;81.10;;;;;;5012619;28;20105;-56
2022/06/02 00:10:00;;;;;;;7.78;1.30;;;11.20;79.00;;;;;;5008359;28;20048;-58
2022/06/02 00:12:40;;;;;;;5.60;1.77;;;11.50;75.70;;;;;;5012336;28;20025;-56
2022/06/02 00:15:28;;;;;;;8.82;2.83;;;11.70;75.30;;;;;;5012390;28;20033;-56
2022/06/02 00:18:13;;;;;;;5.00;1.73;;;11.80;74.00;;;;;;5012259;28;20049;-54
2022/06/02 00:20:58;;;;;;;5.43;1.80;;;11.90;73.10;;;;;;5012759;28;20026;-56
2022/06/02 00:23:54;;;;;;;3.13;1.30;;;11.90;72.30;;;;;;5012345;28;20033;-57
2022/06/02 00:26:40;;;;;;;3.83;1.33;;;12.00;75.00;;;;;;5012123;28;20041;-56
2022/06/02 00:29:30;;;;;;;3.17;1.15;;;12.10;74.10;;;;;;5011892;28;20026;-57
2022/06/02 00:32:06;;;;;;;2.65;1.17;;;12.20;73.80;;;;;;4994383;28;20438;-58
2022/06/02 00:34:49;;;;;;;2.45;1.17;;;12.40;74.10;;;;;;5011943;28;20025;-57
2022/06/02 00:37:38;;;;;;;2.85;2.00;;;12.50;72.50;;;;;;4994294;28;20033;-58
2022/06/02 00:40:09;;;;;;;2.13;1.00;;;12.70;71.90;;;;;;5011931;28;20109;-57
2022/06/02 00:42:49;;;;;;;2.80;0.82;;;12.90;70.00;;;;;;5011906;28;20105;-58
2022/06/02 00:45:18;;;;;;;2.63;1.20;;;13.10;68.80;;;;;;5008253;28;20095;-58
2022/06/02 00:48:12;;;;;;;1.77;0.90;;;13.20;69.00;;;;;;5011558;28;20045;-58
2022/06/02 00:51:14;;;;;;;3.08;1.00;;;13.30;68.50;;;;;;5012118;28;20105;-57
2022/06/02 00:57:31;;;;;;;5.20;1.95;;;13.80;68.30;;;;;;5011666;28;20084;-58
2022/06/02 01:00:11;;;;;;;3.10;1.10;;;13.90;67.20;;;;;;5008982;28;20410;-59
2022/06/02 01:02:54;;;;;;;4.18;1.10;;;14.10;64.60;;;;;;5011230;28;20506;-57
2022/06/02 01:05:56;;;;;;;7.47;1.42;;;14.00;64.20;;;;;;4993374;28;20065;-54
2022/06/02 01:08:38;;;;;;;3.42;0.93;;;14.00;64.70;;;;;;5008256;28;20034;-57
2022/06/02 01:11:13;;;;;;;5.03;0.98;;;13.90;65.60;;;;;;5010050;28;20041;-56
2022/06/02 01:13:48;;;;;;;3.58;0.93;;;13.90;65.50;;;;;;5011949;28;20033;-55
2022/06/02 01:16:19;;;;;;;1.85;0.80;;;13.90;65.80;;;;;;5019490;28;20499;-57
2022/06/02 01:19:02;;;;;;;4.20;1.02;;;14.00;65.80;;;;;;5011046;28;20026;-56
2022/06/02 01:21:41;;;;;;;6.15;1.38;;;14.10;65.30;;;;;;5010699;28;20029;-57
2022/06/02 01:24:19;;;;;;;2.70;1.17;;;14.10;65.40;;;;;;5002142;28;20675;-56
2022/06/02 01:26:58;;;;;;;3.40;1.20;;;14.20;65.50;;;;;;4989274;28;20026;-57
2022/06/02 01:29:43;;;;;;;1.58;0.55;;;14.20;65.70;;;;;;5006571;28;20033;-58
2022/06/02 01:32:11;;;;;;;;;;;14.30;65.50;;;;;;5009442;28;20045;-57
2022/06/02 01:34:38;;;;;;;12.68;1.40;;;14.30;65.20;;;;;;5008907;28;19948;-58
2022/06/02 01:37:42;;;;;;;6.70;0.90;;;14.40;64.60;;;;;;4990383;28;20451;-57
2022/06/02 01:40:28;;;;;;;3.10;0.57;;;14.40;62.60;;;;;;4989646;28;20018;-59
2022/06/02 01:43:36;;;;;;;2.42;0.80;;;14.40;61.50;;;;;;5008168;28;20033;-56
2022/06/02 01:46:06;;;;;;;0.73;0.40;;;14.40;62.10;;;;;;4966061;28;20070;-57
2022/06/02 01:48:56;;;;;;;3.17;0.65;;;14.30;60.50;;;;;;4988381;28;20073;-58
2022/06/02 01:51:49;;;;;;;2.42;0.50;;;14.40;59.80;;;;;;4990968;28;20030;-56
2022/06/02 01:54:29;;;;;;;3.97;0.43;;;14.20;58.90;;;;;;5007896;28;20033;-56
2022/06/02 01:57:17;;;;;;;2.95;0.50;;;14.20;59.80;;;;;;5008101;28;20116;-54
2022/06/02 02:00:10;;;;;;;4.55;0.70;;;14.10;60.10;;;;;;5007774;28;20022;-57
2022/06/02 02:03:10;;;;;;;0.70;0.35;;;14.10;59.80;;;;;;5008140;28;20045;-55
2022/06/02 02:06:06;;;;;;;0.73;0.30;;;14.10;59.70;;;;;;5008067;28;20034;-57
2022/06/02 02:08:52;;;;;;;3.03;0.50;;;14.00;60.30;;;;;;5009363;28;20673;-58
2022/06/02 02:12:02;;;;;;;4.45;0.77;;;14.00;60.00;;;;;;5010497;28;20061;-58
2022/06/02 02:14:43;;;;;;;4.43;0.65;;;14.00;60.40;;;;;;5015122;28;20030;-57
2022/06/02 02:17:13;;;;;;;0.82;0.40;;;14.00;60.20;;;;;;5026183;28;20021;-58
2022/06/02 02:19:43;;;;;;;2.80;1.00;;;14.00;60.00;;;;;;5010643;28;20471;-56
2022/06/02 02:22:13;;;;;;;2.72;0.60;;;14.10;60.60;;;;;;5003254;28;20144;-59
2022/06/02 02:25:07;;;;;;;5.93;0.85;;;14.20;59.80;;;;;;5005369;28;20074;-58
2022/06/02 02:28:12;;;;;;;3.90;0.47;;;14.30;59.80;;;;;;5009252;28;20018;-53
2022/06/02 02:30:45;;;;;;;3.25;0.60;;;14.40;61.10;;;;;;5011881;28;20083;-57
2022/06/02 02:33:19;;;;;;;1.90;0.60;;;14.60;60.90;;;;;;5009311;28;20160;-58
2022/06/02 02:36:07;;;;;;;0.77;0.47;;;14.80;60.00;;;;;;5009250;28;20014;-57
2022/06/02 02:38:58;;;;;;;1.55;0.50;;;15.00;59.70;;;;;;5008454;28;20029;-58
2022/06/02 02:41:43;;;;;;;5.70;0.52;;;15.00;58.90;;;;;;5009299;28;20042;-57
2022/06/02 02:44:23;;;;;;;2.20;0.60;;;15.10;58.70;;;;;;5008297;28;20033;-56
2022/06/02 02:46:59;;;;;;;5.25;1.30;;;15.20;56.90;;;;;;5009300;28;20032;-57
2022/06/02 02:49:30;;;;;;;1.92;0.95;;;15.30;57.10;;;;;;4970374;28;20046;-58
2022/06/02 02:52:17;;;;;;;2.08;0.50;;;15.30;57.40;;;;;;4970642;28;20074;-57
2022/06/02 02:54:51;;;;;;;1.98;0.70;;;15.20;57.70;;;;;;4970302;28;20034;-57
2022/06/02 02:57:31;;;;;;;2.97;0.57;;;15.20;58.30;;;;;;4973795;28;20019;-58
2022/06/02 03:00:12;;;;;;;3.00;1.02;;;15.30;59.10;;;;;;4974180;28;20039;-57
2022/06/02 03:02:43;;;;;;;3.95;0.60;;;15.30;58.60;;;;;;4974934;28;20140;-57
2022/06/02 03:05:17;;;;;;;2.00;0.50;;;15.20;57.00;;;;;;4974742;28;20082;-58
2022/06/02 03:07:44;;;;;;;1.98;0.70;;;15.10;58.10;;;;;;4959264;28;20030;-57
2022/06/02 03:10:35;;;;;;;1.75;0.60;;;15.10;58.20;;;;;;4974833;28;20030;-57
2022/06/02 03:13:22;;;;;;;4.90;1.13;;;15.00;59.50;;;;;;4974288;28;20023;-58
2022/06/02 03:15:59;;;;;;;6.38;0.65;;;15.00;59.50;;;;;;4949679;28;20035;-57
2022/06/02 03:18:52;;;;;;;1.75;0.57;;;14.90;60.60;;;;;;4974159;28;20357;-58
2022/06/02 03:21:26;;;;;;;1.75;0.45;;;14.90;60.10;;;;;;4973837;28;20030;-58
2022/06/02 03:24:08;;;;;;;5.43;0.65;;;14.80;59.80;;;;;;4973984;28;20033;-57
2022/06/02 03:26:38;;;;;;;1.38;0.57;;;14.80;59.10;;;;;;4973981;28;20073;-56
2022/06/02 03:29:12;;;;;;;2.63;0.38;;;14.80;59.50;;;;;;4973936;28;20019;-55
2022/06/02 03:32:08;;;;;;;3.75;0.40;;;14.80;59.90;;;;;;4972433;28;20073;-55
2022/06/02 03:34:57;;;;;;;4.75;0.65;;;14.80;60.10;;;;;;4973676;28;20034;-58
2022/06/02 03:37:51;;;;;;;4.00;0.60;;;14.70;60.40;;;;;;4972730;28;20042;-55
2022/06/02 03:40:38;;;;;;;3.38;0.57;;;14.70;62.30;;;;;;4971453;28;20023;-58
2022/06/02 03:43:26;;;;;;;3.38;0.52;;;14.70;60.90;;;;;;4977561;28;20447;-54
2022/06/02 03:45:53;;;;;;;2.28;0.60;;;14.80;61.10;;;;;;4972852;28;20038;-56
2022/06/02 03:48:41;;;;;;;3.78;0.60;;;14.90;60.90;;;;;;4995384;28;20034;-57
2022/06/02 03:51:21;;;;;;;1.40;0.70;;;15.00;59.50;;;;;;5011983;28;20453;-55
2022/06/02 03:54:03;;;;;;;3.08;0.73;;;15.10;59.50;;;;;;5009304;28;20102;-56
2022/06/02 03:56:44;;;;;;;2.40;0.85;;;15.20;58.50;;;;;;5009940;28;20037;-58
2022/06/02 03:59:32;;;;;;;1.02;0.32;;;15.30;58.60;;;;;;5008927;28;20479;-59
2022/06/02 04:02:12;;;;;;;2.90;0.52;;;15.40;57.50;;;;;;5008817;28;20026;-56
2022/06/02 04:05:02;;;;;;;2.63;0.60;;;15.60;57.70;;;;;;5010006;28;20046;-57
2022/06/02 04:07:41;;;;;;;2.33;1.05;;;15.70;57.70;;;;;;4998938;28;20128;-58
2022/06/02 04:10:27;;;;;;;1.05;0.57;;;15.80;55.70;;;;;;5012037;28;20109;-58
2022/06/02 04:13:39;;;;;;;2.33;0.68;;;15.80;57.80;;;;;;5009431;28;20109;-58
2022/06/02 04:16:22;;;;;;;5.75;0.52;;;15.90;57.30;;;;;;5009503;28;20026;-57
2022/06/02 04:22:17;;;;;;;2.78;0.40;;;16.00;56.80;;;;;;5011797;28;20407;-58
2022/06/02 04:25:09;;;;;;;4.68;0.63;;;15.90;55.30;;;;;;5008532;28;20034;-58
2022/06/02 04:28:14;;;;;;;1.77;0.65;;;15.80;56.50;;;;;;5006439;28;20030;-58
2022/06/02 04:31:18;;;;;;;3.72;0.70;;;15.70;56.80;;;;;;5019202;28;20046;-58
2022/06/02 04:33:55;;;;;;;1.00;0.50;;;15.60;57.30;;;;;;5016729;28;20375;-59
2022/06/02 04:36:36;;;;;;;3.45;0.60;;;15.60;57.00;;;;;;5011777;28;20076;-56
2022/06/02 04:39:13;;;;;;;2.03;0.50;;;15.50;56.70;;;;;;4998562;28;20030;-58
2022/06/02 04:42:03;;;;;;;3.90;0.43;;;15.50;57.90;;;;;;5008911;28;20060;-59
2022/06/02 04:44:57;;;;;;;1.95;0.60;;;15.40;57.90;;;;;;5002709;28;20121;-58
2022/06/02 04:47:34;;;;;;;5.38;1.20;;;15.40;57.60;;;;;;5008457;28;20053;-58
2022/06/02 04:50:30;;;;;;;5.63;0.60;;;15.30;56.70;;;;;;5008977;28;20034;-58
2022/06/02 04:53:06;;;;;;;3.85;0.60;;;15.20;57.10;;;;;;5007653;28;20040;-59
2022/06/02 04:56:02;;;;;;;2.65;0.75;;;15.10;57.80;;;;;;5008220;28;20484;-58
2022/06/02 04:58:56;;;;;;;1.98;0.68;;;15.10;57.90;;;;;;5006162;28;20061;-58
2022/06/02 05:01:59;;;;;;;6.82;2.25;;;15.00;58.50;;;;;;5003021;28;20054;-58
2022/06/02 05:04:59;;;;;;;4.60;1.80;;;15.00;58.00;;;;;;5005520;28;20329;-58
2022/06/02 05:07:45;;;;;;;1.02;0.70;;;15.00;56.70;;;;;;5006539;28;20026;-58
2022/06/02 05:10:24;;;;;;;3.22;1.17;;;14.90;58.60;;;;;;5010237;28;20026;-58
2022/06/02 05:13:07;;;;;;;6.03;0.85;;;14.90;59.10;;;;;;5011506;28;20467;-58
2022/06/02 05:16:01;;;;;;;2.42;0.85;;;14.80;57.70;;;;;;5011591;28;20054;-58
2022/06/02 05:18:52;;;;;;;2.45;0.70;;;14.80;58.20;;;;;;5010643;28;20054;-58
2022/06/02 05:22:04;;;;;;;1.55;0.50;;;14.70;57.80;;;;;;4993525;28;20510;-58
2022/06/02 05:24:43;;;;;;;2.22;0.77;;;14.70;58.20;;;;;;4986434;28;20045;-58
2022/06/02 05:27:24;;;;;;;0.93;0.43;;;14.60;57.30;;;;;;5011475;28;20037;-58
2022/06/02 05:30:00;;;;;;;4.85;1.13;;;14.40;58.20;;;;;;5011196;28;20029;-58
2022/06/02 05:32:45;;;;;;;3.03;0.70;;;14.40;58.50;;;;;;5011187;28;20631;-58
2022/06/02 05:35:32;;;;;;;3.15;0.80;;;14.40;58.70;;;;;;5011549;28;20021;-58
2022/06/02 05:38:40;;;;;;;3.38;0.70;;;14.30;59.10;;;;;;5010728;28;20435;-56
2022/06/02 05:41:07;;;;;;;3.45;0.40;;;14.30;59.20;;;;;;5010972;28;20041;-58
2022/06/02 05:43:59;;;;;;;2.58;0.70;;;14.30;59.20;;;;;;5010964;28;20029;-57
2022/06/02 05:47:00;;;;;;;2.47;1.00;;;14.20;58.80;;;;;;5010857;28;20029;-57
2022/06/02 05:49:57;;;;;;;1.15;0.52;;;13.90;59.50;;;;;;5010865;28;20514;-58
2022/06/02 05:52:50;;;;;;;3.67;0.63;;;13.70;60.10;;;;;;5002810;28;20057;-57
2022/06/02 05:55:43;;;;;;;3.95;0.68;;;13.50;60.30;;;;;;5010716;28;20843;-55
2022/06/02 05:58:28;;;;;;;2.00;0.52;;;13.20;61.00;;;;;;5011103;28;20022;-57
2022/06/02 06:01:33;;;;;;;1.30;0.73;;;13.00;62.40;;;;;;5010636;28;20022;-56
2022/06/02 06:04:21;;;;;;;1.13;0.80;;;12.80;64.10;;;;;;4957133;28;20034;-55
2022/06/02 06:07:01;;;;;;;2.50;0.70;;;12.60;65.90;;;;;;5010364;28;20038;-57
2022/06/02 06:09:50;;;;;;;7.28;0.70;;;12.50;67.00;;;;;;4990365;28;20026;-57
2022/06/02 06:12:35;;;;;;;2.13;0.80;;;12.40;68.30;;;;;;4988549;28;20034;-58
2022/06/02 06:15:17;;;;;;;3.63;1.60;;;12.30;69.50;;;;;;4988381;28;20109;-57
2022/06/02 06:18:02;;;;;;;2.30;0.60;;;12.10;70.10;;;;;;4988175;28;20030;-57
2022/06/02 06:20:52;;;;;;;2.28;0.63;;;12.00;70.20;;;;;;4987776;28;20422;-58
2022/06/02 06:23:44;;;;;;;3.45;0.88;;;12.00;70.60;;;;;;4970482;28;20530;-57
2022/06/02 06:26:37;;;;;;;3.00;0.82;;;11.90;70.50;;;;;;4988718;28;20042;-56
2022/06/02 06:29:13;;;;;;;2.53;1.30;;;11.90;70.60;;;;;;4988037;28;20030;-56
2022/06/02 06:31:58;;;;;;;6.82;1.90;;;11.80;71.00;;;;;;4988078;28;20451;-55
2022/06/02 06:34:34;;;;;;;;;;;11.70;71.80;;;;;;4988391;28;20027;-56
2022/06/02 06:37:36;;;;;;;4.18;1.00;;;11.60;72.90;;;;;;4987967;28;19909;-58
2022/06/02 06:40:19;;;;;;;2.92;0.85;;;11.40;73.80;;;;;;4956738;28;20054;-55
2022/06/02 06:43:13;;;;;;;3.17;1.10;;;11.40;74.20;;;;;;4988140;28;20034;-56
2022/06/02 06:45:52;;;;;;;4.20;1.30;;;11.20;74.30;;;;;;4987975;28;20074;-55
2022/06/02 06:48:23;;;;;;;3.13;1.20;;;11.00;75.10;;;;;;4987747;28;20049;-56
2022/06/02 06:51:10;;;;;;;2.63;0.93;;;10.90;77.10;;;;;;4999070;28;20034;-55
2022/06/02 06:54:04;;;;;;;6.82;1.90;;;10.80;78.00;;;;;;5008611;28;20117;-56
2022/06/02 06:56:50;;;;;;;4.07;1.60;;;10.80;77.00;;;;;;5009987;28;20030;-56
2022/06/02 06:59:43;;;;;;;2.92;1.42;;;10.70;77.10;;;;;;5009779;28;20386;-55
2022/06/02 07:02:32;;;;;;;7.82;1.83;;;10.60;76.90;;;;;;5010351;28;20054;-56
2022/06/02 07:05:27;;;;;;;5.30;1.50;;;10.40;77.30;;;;;;5009899;28;20038;-54
2022/06/02 07:08:13;;;;;;;4.72;1.10;;;10.30;77.40;;;;;;4991905;28;20026;-55
2022/06/02 07:12:50;;;;;;;2.40;1.00;;;10.20;77.30;;;;;;5010002;28;20390;-55
2022/06/02 07:14:04;;;;;;;4.57;1.48;;;10.00;77.20;;;;;;5009515;28;20038;-57
2022/06/02 07:16:42;;;;;;;1.60;0.80;;;9.90;79.10;;;;;;4992213;28;20026;-56
2022/06/02 07:19:32;;;;;;;7.10;0.88;;;9.80;80.40;;;;;;5010582;28;20025;-54
2022/06/02 07:22:02;;;;;;;4.10;1.17;;;9.70;80.80;;;;;;5009498;28;20033;-55
2022/06/02 07:25:02;;;;;;;3.40;1.00;;;9.60;80.20;;;;;;5009707;28;20057;-56
2022/06/02 07:28:06;;;;;;;4.18;1.00;;;9.50;80.50;;;;;;5009703;28;20026;-55
2022/06/02 07:31:29;;;;;;;7.15;1.00;;;9.40;79.80;;;;;;4993946;28;20675;-56
2022/06/02 07:34:17;;;;;;;5.15;0.90;;;9.30;80.20;;;;;;4920021;28;20034;-56
2022/06/02 07:37:06;;;;;;;4.47;1.20;;;9.20;79.90;;;;;;5009787;28;20026;-64
2022/06/02 07:39:55;;;;;;;7.45;4.97;;;9.10;80.00;;;;;;5009174;28;20402;-55
2022/06/02 07:42:31;;;;;;;17.10;10.50;;;9.00;79.90;;;;;;5011289;28;20033;-57
2022/06/02 07:45:21;;;;;;;8.15;4.13;;;9.00;81.10;;;;;;5013115;28;20072;-57
2022/06/02 07:48:30;;;;;;;4.90;2.22;;;8.80;82.10;;;;;;5012974;28;20080;-57
2022/06/02 07:51:04;;;;;;;5.95;2.45;;;8.70;83.20;;;;;;4999001;28;20121;-55
2022/06/02 07:53:34;;;;;;;;;;;8.60;84.60;;;;;;5013241;28;20057;-57
2022/06/02 07:56:34;;;;;;;5.43;2.70;;;8.50;85.20;;;;;;5012904;28;19944;-57
2022/06/02 07:59:33;;;;;;;10.00;3.92;;;8.50;86.30;;;;;;4975203;28;20042;-56
2022/06/02 08:02:17;;;;;;;9.05;3.95;;;8.40;86.90;;;;;;5012812;28;20018;-57
2022/06/02 08:04:59;;;;;;;6.85;3.80;;;8.30;86.70;;;;;;5013080;28;20032;-57
2022/06/02 08:07:46;;;;;;;7.88;3.30;;;8.20;86.70;;;;;;5012407;28;20033;-55
2022/06/02 08:11:03;;;;;;;6.97;2.95;;;8.20;87.10;;;;;;5013033;28;20022;-56
2022/06/02 08:13:55;;;;;;;9.70;3.60;;;8.10;88.30;;;;;;4991456;28;20080;-57
2022/06/02 08:16:48;;;;;;;11.07;3.92;;;8.00;88.90;;;;;;5012501;28;20053;-59
2022/06/02 08:19:40;;;;;;;9.30;3.75;;;8.00;89.30;;;;;;4999819;28;20068;-59
2022/06/02 08:22:12;;;;;;;8.32;3.80;;;8.00;89.70;;;;;;5012082;28;20033;-53
2022/06/02 08:25:14;;;;;;;9.63;3.92;;;8.00;90.00;;;;;;5012163;28;20128;-56
2022/06/02 08:28:16;;;;;;;12.20;3.60;;;7.90;90.00;;;;;;5012644;28;20025;-57
2022/06/02 08:31:10;;;;;;;12.68;4.35;;;7.90;90.20;;;;;;4923505;28;20258;-57
2022/06/02 08:33:50;;;;;;;8.10;4.55;;;7.90;90.20;;;;;;5004189;28;20099;-57
2022/06/02 08:36:34;;;;;;;8.15;3.88;;;7.90;90.30;;;;;;5007325;28;20026;-55
2022/06/02 08:39:10;;;;;;;9.85;3.50;;;7.90;90.50;;;;;;5000042;28;20561;-57
2022/06/02 08:42:10;;;;;;;7.47;3.65;;;7.90;90.30;;;;;;4988239;28;20450;-56
2022/06/02 08:45:03;;;;;;;9.25;4.25;;;7.90;90.30;;;;;;4989946;28;20100;-55
2022/06/02 08:48:27;;;;;;;10.15;3.97;;;7.90;90.50;;;;;;4990210;28;20641;-57
2022/06/02 08:50:57;;;;;;;9.00;3.53;;;7.80;90.80;;;;;;4975605;28;20491;-58
2022/06/02 08:53:52;;;;;;;9.70;4.25;;;7.80;91.00;;;;;;5007141;28;20112;-57
2022/06/02 08:56:25;;;;;;;;;;;7.80;91.60;;;;;;5006613;28;20034;-56
2022/06/02 08:59:19;;;;;;;8.73;3.95;;;7.80;91.30;;;;;;4990678;28;20337;-56
2022/06/02 09:02:07;;;;;;;7.75;4.30;;;7.80;91.00;;;;;;5011139;28;20053;-60
2022/06/02 09:05:11;;;;;;;10.05;4.88;;;7.70;91.10;;;;;;5008625;28;20029;-58
2022/06/02 09:08:02;;;;;;;8.95;4.10;;;7.70;91.40;;;;;;5008395;28;20498;-57
2022/06/02 09:10:51;;;;;;;10.35;4.90;;;7.70;91.80;;;;;;5002886;28;20389;-56
2022/06/02 09:13:27;;;;;;;11.07;6.05;;;7.70;91.60;;;;;;5008702;28;20618;-56
2022/06/02 09:16:03;;;;;;;9.50;5.78;;;7.60;91.40;;;;;;5008711;28;20495;-55
2022/06/02 09:18:40;;;;;;;10.93;5.57;;;7.60;91.70;;;;;;5008660;28;20541;-56
2022/06/02 09:21:29;;;;;;;13.70;5.35;;;7.60;91.60;;;;;;5007974;28;20024;-56
2022/06/02 09:24:05;;;;;;;12.52;5.10;;;7.50;91.20;;;;;;5015366;28;20036;-57
2022/06/02 09:27:10;;;;;;;9.70;5.50;;;7.40;91.40;;;;;;5018172;28;20671;-57
2022/06/02 09:29:43;;;;;;;15.23;6.00;;;7.30;91.70;;;;;;4975428;28;20040;-56
2022/06/02 09:32:24;;;;;;;12.38;5.90;;;7.30;91.90;;;;;;5007451;28;20030;-55
2022/06/02 09:35:02;;;;;;;10.27;5.88;;;7.30;92.20;;;;;;5006344;28;20408;-58
2022/06/02 09:37:53;;;;;;;12.90;6.75;;;7.20;92.20;;;;;;5009100;28;20021;-58
2022/06/02 09:41:00;;;;;;;16.83;6.63;;;7.20;92.40;;;;;;5008909;28;20036;-57
2022/06/02 09:43:42;;;;;;;13.52;5.25;;;7.20;92.50;;;;;;5007311;28;20040;-57
2022/06/02 09:46:44;;;;;;;9.23;5.13;;;7.20;92.70;;;;;;5008004;28;20121;-56
2022/06/02 09:49:21;;;;;;;10.52;5.78;;;7.20;92.80;;;;;;4984631;28;20082;-58
2022/06/02 09:51:48;;;;;;;13.10;6.55;;;7.30;92.90;;;;;;4968437;28;20041;-58
2022/06/02 09:54:46;;;;;;;14.25;7.07;;;7.30;93.00;;;;;;4969233;28;20082;-57
2022/06/02 10:00:54;;;;;;;15.55;6.88;;;7.30;93.10;;;;;;4968503;28;20049;-57
2022/06/02 10:03:27;;;;;;;13.73;7.57;;;7.30;93.00;;;;;;4967740;28;20038;-58
2022/06/02 10:06:13;;;;;;;13.40;8.25;;;7.30;93.00;;;;;;4965373;28;20600;-56
2022/06/02 10:09:18;;;;;;;13.88;9.05;;;7.30;92.90;;;;;;4970603;28;20046;-61
2022/06/02 10:12:54;;;;;;;16.00;7.32;;;7.20;92.60;;;;;;4969307;28;20030;-55
2022/06/02 10:15:17;;;;;;;16.90;8.15;;;7.20;92.50;;;;;;4980859;28;20042;-57
2022/06/02 10:18:12;;;;;;;15.35;7.47;;;7.10;92.60;;;;;;4977459;28;20476;-55
2022/06/02 10:20:51;;;;;;;18.25;6.57;;;7.10;92.60;;;;;;4956772;28;20492;-55
2022/06/02 10:23:54;;;;;;;16.38;7.32;;;7.00;92.70;;;;;;4966167;28;20034;-55
2022/06/02 10:26:40;;;;;;;22.17;7.07;;;7.00;92.80;;;;;;4964099;28;20530;-56
2022/06/02 10:29:26;;;;;;;20.23;6.70;;;7.00;92.70;;;;;;4957244;28;20495;-55
2022/06/02 10:31:59;;;;;;;12.15;5.93;;;7.00;93.00;;;;;;4965956;28;20038;-56
2022/06/02 10:34:54;;;;;;;14.25;7.60;;;7.00;93.00;;;;;;4965971;28;20031;-55
2022/06/02 10:37:39;;;;;;;;;;;6.90;93.00;;;;;;4965094;28;20622;-56
2022/06/02 10:40:13;;;;;;;16.13;6.85;;;7.00;93.20;;;;;;4969891;28;19914;-56
2022/06/02 10:43:02;;;;;;;14.45;8.10;;;7.00;93.20;;;;;;4979510;28;20035;-55
2022/06/02 10:46:05;;;;;;;15.57;9.07;;;7.00;93.50;;;;;;4963913;28;20092;-53
2022/06/02 10:48:49;;;;;;;15.15;8.80;;;7.10;93.50;;;;;;4994190;28;20651;-54
2022/06/02 10:51:41;;;;;;;18.77;9.95;;;7.10;93.30;;;;;;5003928;28;20507;-56
2022/06/02 10:54:20;;;;;;;17.63;9.85;;;7.00;93.40;;;;;;5006564;28;20391;-57
2022/06/02 10:57:05;;;;;;;24.27;11.30;;;7.00;93.50;;;;;;5001392;28;20390;-56
2022/06/02 11:00:11;;;;;;;24.23;11.20;;;6.90;93.50;;;;;;5004543;28;20041;-52
2022/06/02 11:03:14;;;;;;;25.80;12.27;;;6.90;93.60;;;;;;5002831;28;20763;-57
2022/06/02 11:06:08;;;;;;;23.13;12.52;;;6.90;93.60;;;;;;5002370;28;20042;-57
2022/06/02 11:08:47;;;;;;;21.90;12.70;;;6.90;93.90;;;;;;5017390;28;20032;-56
2022/06/02 11:11:36;;;;;;;21.52;10.23;;;6.90;93.80;;;;;;5013062;28;20030;-57
2022/06/02 11:14:41;;;;;;;21.17;11.13;;;6.90;93.70;;;;;;5005511;28;20077;-54
2022/06/02 11:17:11;;;;;;;17.23;9.93;;;6.90;93.70;;;;;;4995854;28;20038;-56
2022/06/02 11:20:13;;;;;;;18.73;10.27;;;6.90;93.80;;;;;;5009284;28;20426;-56
2022/06/02 11:23:19;;;;;;;22.38;10.93;;;6.80;93.60;;;;;;5006061;28;20565;-57
2022/06/02 11:26:17;;;;;;;18.23;10.98;;;6.80;93.70;;;;;;5013815;28;20506;-57
2022/06/02 11:29:31;;;;;;;19.08;10.88;;;6.70;93.60;;;;;;5010429;28;20735;-53
2022/06/02 11:32:26;;;;;;;22.10;13.95;;;6.60;93.50;;;;;;4989450;28;20049;-56
2022/06/02 11:35:17;;;;;;;22.63;14.50;;;6.60;93.60;;;;;;5010915;28;20363;-55
2022/06/02 11:38:16;;;;;;;32.38;20.10;;;6.50;93.70;;;;;;5014697;28;20486;-54
2022/06/02 11:40:52;;;;;;;35.28;19.17;;;6.40;93.80;;;;;;5017616;28;20457;-58
2022/06/02 11:43:24;;;;;;;35.78;21.83;;;6.40;94.00;;;;;;5010051;28;20088;-57
2022/06/02 11:46:09;;;;;;;37.97;21.95;;;6.40;94.20;;;;;;5008776;28;20780;-55
2022/06/02 11:49:14;;;;;;;43.80;22.30;;;6.30;94.20;;;;;;5005361;28;20107;-58
2022/06/02 11:52:07;;;;;;;42.92;22.90;;;6.50;96.20;;;;;;5006205;28;20115;-58
2022/06/02 11:55:11;;;;;;;29.73;17.70;;;6.60;96.10;;;;;;4993015;28;20041;-57
2022/06/02 11:57:50;;;;;;;28.92;16.15;;;6.80;95.60;;;;;;5003449;28;20034;-55
2022/06/02 12:00:41;;;;;;;28.95;13.38;;;6.80;94.90;;;;;;5008910;28;20014;-55
2022/06/02 12:03:35;;;;;;;25.27;11.82;;;6.70;94.60;;;;;;5009317;28;20030;-57
2022/06/02 12:06:30;;;;;;;23.65;11.68;;;6.70;94.90;;;;;;5009971;28;20399;-57
2022/06/02 12:09:17;;;;;;;20.88;10.82;;;6.70;94.60;;;;;;5010242;28;20025;-57
2022/06/02 12:12:25;;;;;;;19.20;11.05;;;6.60;94.70;;;;;;5011259;28;20022;-56
2022/06/02 12:15:19;;;;;;;16.50;9.20;;;6.60;94.90;;;;;;4998324;28;20487;-58
2022/06/02 12:17:56;;;;;;;22.27;10.57;;;6.50;95.00;;;;;;5011374;28;20033;-58
2022/06/02 12:20:41;;;;;;;16.77;10.35;;;6.50;95.30;;;;;;4993299;28;20041;-57
2022/06/02 12:23:18;;;;;;;21.70;11.57;;;6.50;95.40;;;;;;5008758;28;20033;-58
2022/06/02 12:25:53;;;;;;;22.65;11.85;;;6.50;95.50;;;;;;5014733;28;20059;-58
2022/06/02 12:28:55;;;;;;;21.92;11.45;;;6.50;95.60;;;;;;5019974;28;20868;-58
2022/06/02 12:31:31;;;;;;;19.83;9.32;;;6.60;95.80;;;;;;4981198;28;20041;-57
2022/06/02 12:34:02;;;;;;;20.00;10.55;;;6.50;95.80;;;;;;5022013;28;20025;-57
2022/06/02 12:36:44;;;;;;;22.58;9.75;;;6.50;95.80;;;;;;5015966;28;20021;-57
2022/06/02 12:39:43;;;;;;;19.67;9.45;;;6.50;95.80;;;;;;5008514;28;20034;-57
2022/06/02 12:42:20;;;;;;;20.95;10.43;;;6.50;96.00;;;;;;5011487;28;20018;-59
2022/06/02 12:45:05;;;;;;;22.40;10.13;;;6.60;96.20;;;;;;5010646;28;20042;-56
2022/06/02 12:48:12;;;;;;;18.40;9.93;;;6.60;96.10;;;;;;5010524;28;20593;-55
2022/06/02 12:51:01;;;;;;;17.30;8.90;;;6.60;96.20;;;;;;5011450;28;20018;-54
2022/06/02 12:53:34;;;;;;;19.30;9.85;;;6.60;96.10;;;;;;5011610;28;20022;-57
2022/06/02 12:56:15;;;;;;;18.85;10.07;;;6.70;96.30;;;;;;5011067;28;20037;-57
2022/06/02 12:59:07;;;;;;;17.13;9.25;;;6.70;96.30;;;;;;5011357;28;20034;-56
2022/06/02 13:01:48;;;;;;;17.83;10.23;;;6.70;96.30;;;;;;5011180;28;20026;-57
2022/06/02 13:04:45;;;;;;;19.42;11.15;;;6.70;96.20;;;;;;5011633;28;20057;-57
2022/06/02 13:07:21;;;;;;;21.63;10.32;;;6.70;96.20;;;;;;5015590;28;20060;-57
2022/06/02 13:10:01;;;;;;;15.32;9.27;;;6.60;96.20;;;;;;5015674;28;20502;-56
2022/06/02 13:12:50;;;;;;;16.42;9.55;;;6.70;96.30;;;;;;5006650;28;20018;-57
2022/06/02 13:15:53;;;;;;;37.30;11.93;;;6.70;96.40;;;;;;5011019;28;20025;-58
2022/06/02 13:19:03;;;;;;;19.67;10.68;;;6.70;96.50;;;;;;5010907;28;20057;-58
2022/06/02 13:21:49;;;;;;;29.58;12.43;;;6.70;96.50;;;;;;5010471;28;20449;-55
2022/06/02 13:24:29;;;;;;;21.38;11.32;;;6.80;96.70;;;;;;5010799;28;20022;-63
2022/06/02 13:27:08;;;;;;;15.95;10.65;;;6.80;96.70;;;;;;5010345;28;20099;-57
2022/06/02 13:30:17;;;;;;;19.90;10.57;;;6.80;96.70;;;;;;5010697;28;20030;-55
2022/06/02 13:33:07;;;;;;;23.58;12.15;;;6.90;96.90;;;;;;4997214;28;20033;-57
2022/06/02 13:36:03;;;;;;;22.08;11.48;;;6.90;97.10;;;;;;5010587;28;20037;-56
2022/06/02 13:39:02;;;;;;;26.63;10.98;;;6.90;96.80;;;;;;5010454;28;20056;-56
2022/06/02 13:41:51;;;;;;;23.20;9.80;;;6.90;96.80;;;;;;4988734;28;20053;-54
2022/06/02 13:44:36;;;;;;;17.73;9.82;;;7.00;96.50;;;;;;5008787;28;20033;-56
2022/06/02 13:47:16;;;;;;;16.02;10.13;;;6.90;96.30;;;;;;5009060;28;20034;-57
2022/06/02 13:50:21;;;;;;;20.00;9.98;;;6.90;96.40;;;;;;5013224;28;20065;-55
2022/06/02 13:53:04;;;;;;;17.90;9.52;;;6.90;96.40;;;;;;5008679;28;20034;-56
2022/06/02 13:59:12;;;;;;;19.40;10.20;;;6.80;96.40;;;;;;5004154;28;20037;-56
2022/06/02 14:01:49;;;;;;;20.30;10.18;;;6.80;96.50;;;;;;4950849;28;20088;-55
2022/06/02 14:04:25;;;;;;;23.00;9.68;;;6.70;96.10;;;;;;5021696;28;20025;-62
2022/06/02 14:06:57;;;;;;;19.52;10.50;;;6.70;96.00;;;;;;5010202;28;20415;-56
2022/06/02 14:09:43;;;;;;;21.75;12.63;;;6.60;96.20;;;;;;4995861;28;20030;-55
2022/06/02 14:12:28;;;;;;;26.70;12.70;;;6.60;96.50;;;;;;4999878;28;20095;-55
2022/06/02 14:15:23;;;;;;;24.98;14.35;;;6.60;96.50;;;;;;5009179;28;20096;-56
2022/06/02 14:18:02;;;;;;;29.35;19.17;;;6.50;96.20;;;;;;4989538;28;20106;-56
2022/06/02 14:20:29;;;;;;;35.83;17.90;;;6.40;95.80;;;;;;5000738;28;20025;-55
2022/06/02 14:23:20;;;;;;;30.58;18.80;;;6.30;95.60;;;;;;5008798;28;20030;-56
2022/06/02 14:26:03;;;;;;;37.17;22.27;;;6.20;95.50;;;;;;4990856;28;20084;-53
2022/06/02 14:28:45;;;;;;;52.83;27.08;;;6.00;95.70;;;;;;5009031;28;20026;-56
2022/06/02 14:31:19;;;;;;;57.17;28.63;;;5.90;95.30;;;;;;5008740;28;20041;-56
2022/06/02 14:33:56;;;;;;;53.25;30.33;;;5.70;95.10;;;;;;5009257;28;20022;-62
2022/06/02 14:36:59;;;;;;;45.92;26.00;;;5.60;95.10;;;;;;4990781;28;20121;-57
2022/06/02 14:39:51;;;;;;;41.50;25.85;;;5.50;95.80;;;;;;5009413;28;20103;-57
2022/06/02 14:45:20;;;;;;;39.58;22.52;;;5.30;95.20;;;;;;5027788;28;20088;-55
2022/06/02 14:48:29;;;;;;;39.55;23.08;;;5.20;95.40;;;;;;5021527;28;20053;-55